This is the latest recevied weather packets stored in our database for station/object SP1BMW-13. If no packets are shown the sender has not sent any weather packets the latest 10 day(s).
| Time | Temp. | Humidity | Pressure | Rain* | Wind** | Luminosity | Snow |
|---|---|---|---|---|---|---|---|
| 1778224382 | 11.11° C | 59% | 1019.8 hPa | 0 mm | 1.34 m/s, 25° | 374 W/m² | - |
| 1778224320 | 11.11° C | 60% | 1019.7 hPa | 0 mm | 1.79 m/s, 250° | 371 W/m² | - |
| 1778224260 | 11.11° C | 59% | 1019.6 hPa | 0 mm | 3.13 m/s, 335° | 366 W/m² | - |
| 1778224200 | 11.11° C | 60% | 1019.6 hPa | 0 mm | 0.89 m/s, 38° | 359 W/m² | - |
| 1778224140 | 11.11° C | 60% | 1019.7 hPa | 0 mm | 0.89 m/s, 27° | 354 W/m² | - |
| 1778224079 | 10.56° C | 62% | 1019.5 hPa | 0 mm | 0.89 m/s, 303° | 351 W/m² | - |
| 1778224020 | 10.56° C | 61% | 1019.6 hPa | 0 mm | 0 m/s | 346 W/m² | - |
| 1778223960 | 10.56° C | 61% | 1019.8 hPa | 0 mm | 1.79 m/s, 11° | 342 W/m² | - |
| 1778223900 | 10.56° C | 63% | 1019.6 hPa | 0 mm | 0 m/s | 338 W/m² | - |
| 1778223840 | 10.56° C | 62% | 1019.8 hPa | 0 mm | 0.89 m/s, 48° | 337 W/m² | - |
| 1778223780 | 10.56° C | 60% | 1019.7 hPa | 0 mm | 0.89 m/s, 45° | 335 W/m² | - |
| 1778223720 | 10.56° C | 62% | 1019.8 hPa | 0 mm | 1.79 m/s, 54° | 333 W/m² | - |
| 1778223660 | 10° C | 64% | 1019.6 hPa | 0 mm | 1.34 m/s, 40° | 332 W/m² | - |
| 1778223600 | 10° C | 63% | 1019.8 hPa | 0 mm | 0.89 m/s, 46° | 331 W/m² | - |
| 1778223540 | 10.56° C | 61% | 1019.8 hPa | 0 mm | 1.34 m/s, 13° | 334 W/m² | - |
| 1778223480 | 10.56° C | 61% | 1019.7 hPa | 0 mm | 4.02 m/s, 331° | 336 W/m² | - |
| 1778223420 | 10° C | 65% | 1019.8 hPa | 0 mm | 0.89 m/s, 22° | 338 W/m² | - |
| 1778223360 | 10° C | 62% | 1019.8 hPa | 0 mm | 1.34 m/s, 153° | 333 W/m² | - |
| 1778223300 | 10° C | 62% | 1019.8 hPa | 0 mm | 0.89 m/s, 28° | 334 W/m² | - |
| 1778223240 | 10° C | 62% | 1019.7 hPa | 0 mm | 1.79 m/s, 15° | 336 W/m² | - |
| 1778223180 | 10° C | 64% | 1019.7 hPa | 0 mm | 0.89 m/s, 33° | 336 W/m² | - |
| 1778223120 | 10° C | 64% | 1019.9 hPa | 0 mm | 1.34 m/s, 333° | 333 W/m² | - |
| 1778223059 | 10° C | 64% | 1019.7 hPa | 0 mm | 0.89 m/s, 29° | 326 W/m² | - |
| 1778223000 | 10° C | 64% | 1019.7 hPa | 0 mm | 1.79 m/s, 316° | 323 W/m² | - |
| 1778222939 | 10° C | 64% | 1019.8 hPa | 0 mm | 1.79 m/s, 335° | 234 W/m² | - |
* Rain latest hour (hover to see other rain measurements)
** Current wind speed in m/s (hover to see current wind gust speed)